Time;durP1;ratioP1;P1;durP2;ratioP2;P2;SDS_P1;SDS_P2;PMS_P1;PMS_P2;Temp;Humidity;BMP_temperature;BMP_pressure;BME280_temperature;BME280_humidity;BME280_pressure;Samples;Min_cycle;Max_cycle;Signal;HPM_P1;HPM_P2
2022/03/03 07:49:38;;;;;;;84.77;40.00;;;;;;;2.65;55.37;100545.94;6042562;22;103636;-91
2022/03/03 07:52:05;;;;;;;81.43;40.07;;;;;;;2.79;55.04;100538.16;6222111;22;97352;-92
2022/03/03 07:54:32;;;;;;;81.80;39.43;;;;;;;2.81;55.29;100535.59;6196808;22;100826;-91
2022/03/03 07:56:59;;;;;;;80.93;40.40;;;;;;;2.72;55.20;100528.66;6196587;22;101275;-94
2022/03/03 07:59:33;;;;;;;81.00;40.13;;;;;;;2.79;54.82;100530.41;6196208;22;96811;-86
2022/03/03 08:02:01;;;;;;;80.40;39.90;;;;;;;2.92;55.00;100552.88;6221047;22;97143;-85
2022/03/03 08:04:29;;;;;;;75.23;40.10;;;;;;;2.98;54.91;100553.78;6221741;22;100534;-85
2022/03/03 08:07:03;;;;;;;87.40;38.23;;;;;;;3.00;54.93;100539.09;6195029;22;101226;-85
2022/03/03 08:09:31;;;;;;;75.87;36.97;;;;;;;2.99;54.82;100532.16;6222078;22;96877;-84
2022/03/03 08:11:58;;;;;;;77.23;37.20;;;;;;;3.06;54.73;100541.66;6221408;22;96680;-85
2022/03/03 08:14:24;;;;;;;72.63;37.60;;;;;;;3.13;54.66;100541.66;6246569;22;98172;-82
2022/03/03 08:16:50;;;;;;;75.03;39.30;;;;;;;3.07;54.41;100533.88;6220567;22;100426;-85
2022/03/03 08:19:17;;;;;;;77.90;39.60;;;;;;;3.20;54.48;100534.75;6220807;22;97225;-82
2022/03/03 08:21:46;;;;;;;79.33;39.50;;;;;;;3.20;54.45;100531.28;6222736;22;96683;-84
2022/03/03 08:24:12;;;;;;;71.83;37.03;;;;;;;3.11;54.37;100504.50;6219539;22;100958;-82
2022/03/03 08:26:39;;;;;;;82.80;38.60;;;;;;;3.35;54.12;100536.47;6221139;22;101045;-82
2022/03/03 08:29:04;;;;;;;74.20;36.77;;;;;;;3.34;54.41;100540.78;6246857;22;96670;-84
2022/03/03 08:31:49;;;;;;;73.47;35.77;;;;;;;3.43;54.23;100546.81;6220324;22;96794;-83
2022/03/03 08:34:22;;;;;;;77.43;37.23;;;;;;;3.46;54.27;100539.91;6196385;22;100570;-86
2022/03/03 08:36:54;;;;;;;71.50;36.87;;;;;;;3.65;54.07;100555.44;6196214;22;100648;-83
2022/03/03 08:39:26;;;;;;;75.03;39.65;;;;;;;3.68;53.89;100538.13;6222795;22;97195;-89
2022/03/03 08:42:13;;;;;;;73.03;36.67;;;;;;;3.80;54.17;100547.63;6221298;22;97034;-90
2022/03/03 08:44:42;;;;;;;71.83;35.30;;;;;;;3.90;54.21;100545.84;6196158;22;100945;-83
2022/03/03 08:47:09;;;;;;;73.63;37.53;;;;;;;3.94;53.63;100542.38;6244660;22;97870;-87
2022/03/03 08:49:37;;;;;;;69.20;35.47;;;;;;;4.01;53.62;100544.09;6246320;22;96922;-84
2022/03/03 08:52:04;;;;;;;67.10;34.53;;;;;;;4.07;53.53;100539.75;6220891;22;97059;-76
2022/03/03 08:54:30;;;;;;;78.13;37.77;;;;;;;4.28;53.46;100540.53;6195333;22;101675;-77
2022/03/03 08:56:56;;;;;;;68.03;35.07;;;;;;;4.36;53.26;100511.88;6194411;22;101056;-78
2022/03/03 08:59:21;;;;;;;78.60;36.60;;;;;;;4.72;52.75;100531.59;6195890;22;96554;-82
2022/03/03 09:01:48;;;;;;;72.63;35.03;;;;;;;5.21;52.52;100526.88;6221015;22;96963;-78
2022/03/03 09:04:14;;;;;;;69.27;33.37;;;;;;;5.67;51.86;100520.34;6221003;22;101637;-76
2022/03/03 09:06:40;;;;;;;66.13;34.20;;;;;;;6.26;50.71;100525.78;6220716;22;97823;-77
2022/03/03 09:09:05;;;;;;;65.87;34.00;;;;;;;6.78;49.32;100519.81;6245927;22;97002;-76
2022/03/03 09:11:31;;;;;;;62.90;33.40;;;;;;;7.06;48.01;100493.28;6221182;22;97264;-76
2022/03/03 09:13:56;;;;;;;61.33;31.37;;;;;;;7.61;47.28;100516.66;6246501;22;97688;-77
2022/03/03 09:16:22;;;;;;;59.07;30.53;;;;;;;8.05;46.68;100511.44;6220444;22;99725;-77
2022/03/03 09:18:48;;;;;;;55.93;31.70;;;;;;;8.43;45.92;100505.41;6221100;22;96570;-77
2022/03/03 09:21:14;;;;;;;60.97;30.73;;;;;;;8.84;44.25;100516.69;6220644;22;97073;-78
2022/03/03 09:23:41;;;;;;;53.77;29.30;;;;;;;9.00;43.45;100467.44;6220858;22;100982;-77
2022/03/03 09:26:07;;;;;;;53.27;29.80;;;;;;;9.46;42.41;100495.06;6195133;22;101360;-77
2022/03/03 09:28:33;;;;;;;56.40;30.95;;;;;;;9.80;42.28;100494.13;6221305;22;96626;-77
2022/03/03 09:30:59;;;;;;;55.13;29.83;;;;;;;10.15;41.04;100498.38;6220632;22;97079;-77
2022/03/03 09:33:24;;;;;;;51.55;29.83;;;;;;;10.36;40.65;100492.53;6220501;22;97294;-77
2022/03/03 09:35:50;;;;;;;56.97;30.05;;;;;;;10.48;39.67;100462.41;6246197;22;97570;-84
2022/03/03 09:38:16;;;;;;;52.75;30.88;;;;;;;10.87;39.31;100483.03;6195861;22;96970;-77
2022/03/03 09:40:42;;;;;;;57.67;32.60;;;;;;;11.00;38.62;100473.00;6221017;22;96829;-77
2022/03/03 09:43:08;;;;;;;48.92;29.38;;;;;;;11.25;38.20;100476.50;6194851;22;101273;-77
2022/03/03 09:45:35;;;;;;;54.35;32.95;;;;;;;11.48;37.63;100474.84;6220436;22;101134;-76
2022/03/03 09:48:05;;;;;;;47.85;29.38;;;;;;;11.59;37.31;100469.22;6220992;22;97104;-77
2022/03/03 09:50:32;;;;;;;52.88;30.00;;;;;;;11.75;36.65;100460.72;6196402;22;96820;-77
2022/03/03 09:52:58;;;;;;;44.53;27.25;;;;;;;12.09;36.66;100485.81;6219865;22;100743;-77
2022/03/03 09:55:25;;;;;;;47.28;28.60;;;;;;;12.13;35.93;100460.22;6221240;22;101189;-78
2022/03/03 09:57:51;;;;;;;45.78;28.00;;;;;;;12.32;35.35;100477.03;6246457;22;96981;-84
2022/03/03 10:00:17;;;;;;;48.67;29.55;;;;;;;12.54;35.56;100477.06;6221495;22;96835;-78
2022/03/03 10:03:10;;;;;;;51.38;28.45;;;;;;;12.73;33.82;100481.56;6247999;22;97483;-78
2022/03/03 10:05:53;;;;;;;41.17;27.08;;;;;;;12.82;33.80;100476.78;6215186;22;101530;-77
2022/03/03 10:08:23;;;;;;;45.33;26.75;;;;;;;12.75;33.70;100472.69;6222403;22;96628;-77
2022/03/03 10:10:57;;;;;;;49.22;28.33;;;;;;;12.82;32.69;100486.47;6196627;22;96769;-77
2022/03/03 10:13:23;;;;;;;48.47;26.92;;;;;;;12.86;33.38;100481.03;6222154;22;100992;-78
2022/03/03 10:15:55;;;;;;;47.58;26.77;;;;;;;12.92;32.60;100479.91;6222937;22;101307;-77
2022/03/03 10:18:21;;;;;;;44.83;26.33;;;;;;;12.97;31.88;100470.03;6222489;22;96870;-77
2022/03/03 10:20:58;;;;;;;40.17;27.00;;;;;;;13.00;31.26;100472.56;6222268;22;96829;-77
2022/03/03 10:23:30;;;;;;;44.75;27.48;;;;;;;12.83;32.54;100465.34;6195252;22;101748;-78
2022/03/03 10:25:57;;;;;;;45.60;27.75;;;;;;;12.87;31.94;100485.38;6220814;22;101264;-78
2022/03/03 10:28:24;;;;;;;38.30;25.52;;;;;;;12.95;32.40;100477.16;6221603;22;96798;-81
2022/03/03 10:31:02;;;;;;;41.25;24.88;;;;;;;12.90;31.72;100468.56;6221932;22;97156;-81
2022/03/03 10:33:30;;;;;;;41.88;25.50;;;;;;;12.84;32.14;100469.69;6219137;22;101818;-79
2022/03/03 10:36:11;;;;;;;39.60;23.52;;;;;;;12.65;31.48;100450.28;6218875;22;101416;-82
2022/03/03 10:38:44;;;;;;;42.67;23.60;;;;;;;12.68;31.88;100468.59;6218206;22;98344;-81
2022/03/03 10:41:30;;;;;;;37.20;23.98;;;;;;;12.61;31.00;100472.41;6244834;22;96814;-82
2022/03/03 10:43:56;;;;;;;37.53;23.10;;;;;;;12.46;30.92;100456.28;6218778;22;97763;-85
2022/03/03 10:46:22;;;;;;;36.72;23.33;;;;;;;12.42;31.40;100461.72;6193692;22;101357;-80
2022/03/03 10:48:47;;;;;;;39.17;23.73;;;;;;;12.35;31.84;100453.22;6218850;22;97305;-80
2022/03/03 10:51:16;;;;;;;43.95;24.45;;;;;;;12.32;31.73;100455.13;6217697;22;97696;-76
2022/03/03 10:53:42;;;;;;;37.42;24.13;;;;;;;12.21;31.80;100450.25;6194241;22;101294;-83
2022/03/03 10:56:14;;;;;;;38.78;24.40;;;;;;;12.11;31.99;100446.28;6193884;22;101410;-77
2022/03/03 10:58:49;;;;;;;39.47;24.35;;;;;;;11.99;32.16;100443.19;6196154;22;96680;-77
2022/03/03 11:01:17;;;;;;;38.30;24.20;;;;;;;11.93;32.73;100442.59;6245858;22;97117;-80
2022/03/03 11:03:49;;;;;;;38.47;24.73;;;;;;;11.76;32.12;100430.03;6217945;22;96810;-80
2022/03/03 11:06:24;;;;;;;38.17;22.63;;;;;;;11.54;32.52;100430.78;6219431;22;101477;-87
2022/03/03 11:08:51;;;;;;;38.20;23.02;;;;;;;11.35;32.71;100419.25;6196625;22;97141;-84
2022/03/03 11:11:17;;;;;;;36.58;23.95;;;;;;;11.36;32.56;100431.47;6220674;22;97105;-92
2022/03/03 11:13:45;;;;;;;40.40;24.55;;;;;;;11.26;32.84;100422.22;6197254;22;100113;-90
2022/03/03 11:16:11;;;;;;;38.50;24.10;;;;;;;11.09;33.12;100405.25;6220148;22;101325;-83
2022/03/03 11:18:37;;;;;;;39.80;24.35;;;;;;;10.95;33.45;100404.00;6195623;22;96671;-84
2022/03/03 11:21:03;;;;;;;44.42;24.60;;;;;;;10.97;33.69;100418.81;6220440;22;97221;-85
2022/03/03 11:23:42;;;;;;;43.50;24.02;;;;;;;10.80;33.60;100410.66;6220906;22;97012;-84
2022/03/03 11:26:09;;;;;;;34.40;22.58;;;;;;;10.79;34.02;100425.53;6219547;22;101314;-84
2022/03/03 11:28:36;;;;;;;35.53;22.73;;;;;;;10.73;34.34;100423.09;6196026;22;96696;-83
2022/03/03 11:31:30;;;;;;;38.85;24.92;;;;;;;10.70;34.02;100420.56;6220879;22;96994;-84
2022/03/03 11:34:30;;;;;;;38.05;23.88;;;;;;;10.60;34.37;100414.78;6220873;22;101613;-85
2022/03/03 11:37:16;;;;;;;34.80;21.73;;;;;;;10.55;34.46;100421.09;6221150;22;101409;-83
2022/03/03 11:39:59;;;;;;;34.30;21.23;;;;;;;10.51;34.05;100411.59;6220740;22;96954;-85
2022/03/03 11:42:36;;;;;;;33.80;21.95;;;;;;;10.46;34.36;100411.75;6247661;22;96601;-84
2022/03/03 11:45:18;;;;;;;39.00;23.15;;;;;;;10.24;34.31;100387.03;6221527;22;98075;-84
2022/03/03 11:47:46;;;;;;;38.40;23.50;;;;;;;10.30;34.69;100416.63;6195846;22;101060;-85
2022/03/03 11:50:17;;;;;;;37.08;23.92;;;;;;;10.24;35.14;100408.91;6220122;22;96640;-83
2022/03/03 11:52:51;;;;;;;36.40;23.58;;;;;;;10.24;35.46;100405.41;6247612;22;96837;-84
2022/03/03 11:55:29;;;;;;;37.97;24.65;;;;;;;10.19;35.48;100419.53;6220624;22;101097;-83
2022/03/03 11:58:17;;;;;;;37.83;24.42;;;;;;;10.13;35.30;100411.88;6221862;22;101102;-84
2022/03/03 12:00:44;;;;;;;40.55;23.95;;;;;;;10.09;35.53;100412.84;6221073;22;97044;-84
2022/03/03 12:03:12;;;;;;;39.95;22.83;;;;;;;9.92;35.47;100375.81;6221451;22;96704;-84
2022/03/03 12:05:40;;;;;;;37.55;24.15;;;;;;;10.05;36.10;100399.88;6220147;22;98566;-83
2022/03/03 12:08:27;;;;;;;34.45;22.02;;;;;;;10.01;35.96;100401.75;6220658;22;101222;-86
2022/03/03 12:10:56;;;;;;;38.85;22.40;;;;;;;9.97;35.65;100387.00;6218793;22;96672;-84
2022/03/03 12:13:29;;;;;;;34.90;23.15;;;;;;;9.87;35.74;100388.19;6274140;22;96719;-83
2022/03/03 12:16:13;;;;;;;39.13;23.70;;;;;;;9.66;35.33;100361.72;6220436;22;101291;-84
2022/03/03 12:18:42;;;;;;;35.03;21.48;;;;;;;9.75;35.82;100378.94;6247889;22;97860;-83
2022/03/03 12:21:29;;;;;;;34.50;20.92;;;;;;;9.74;35.81;100377.19;6219890;22;96616;-84
2022/03/03 12:24:33;;;;;;;33.45;19.10;;;;;;;9.72;36.15;100379.88;6247240;22;97292;-84
2022/03/03 12:26:59;;;;;;;31.25;19.88;;;;;;;9.72;36.15;100379.88;6200603;22;101384;-85
2022/03/03 12:29:48;;;;;;;38.05;20.83;;;;;;;9.69;35.61;100381.75;6220397;22;98053;-84
2022/03/03 12:32:35;;;;;;;32.13;18.17;;;;;;;9.63;35.84;100366.16;6245695;22;96650;-85
2022/03/03 12:35:09;;;;;;;29.45;18.42;;;;;;;9.54;36.16;100354.22;6196279;22;97346;-84
2022/03/03 12:37:40;;;;;;;26.58;16.58;;;;;;;9.63;35.52;100379.28;6221178;22;98267;-85
2022/03/03 12:40:06;;;;;;;26.30;17.30;;;;;;;9.52;35.38;100369.13;6194727;22;101112;-83
2022/03/03 12:42:33;;;;;;;29.42;15.75;;;;;;;9.53;35.51;100368.22;6218535;22;97180;-82
2022/03/03 12:45:07;;;;;;;26.88;15.30;;;;;;;9.50;35.05;100363.91;6219764;22;96804;-83
2022/03/03 12:47:42;;;;;;;24.05;15.40;;;;;;;9.41;35.47;100361.56;6221367;22;98112;-84
2022/03/03 12:50:14;;;;;;;23.40;15.15;;;;;;;9.39;35.32;100365.13;6240736;22;97201;-83
2022/03/03 12:52:41;;;;;;;25.92;16.52;;;;;;;9.37;35.40;100370.41;6241579;22;97183;-83
2022/03/03 12:55:08;;;;;;;25.00;15.07;;;;;;;9.35;35.55;100364.34;6189587;22;96696;-84
2022/03/03 12:57:36;;;;;;;30.25;17.15;;;;;;;9.39;35.61;100365.13;6214578;22;98405;-84
2022/03/03 13:00:14;;;;;;;29.65;17.48;;;;;;;9.38;36.08;100359.03;6189825;22;101251;-82
2022/03/03 13:02:57;;;;;;;28.65;16.77;;;;;;;9.38;35.47;100364.28;6216306;22;96722;-84
2022/03/03 13:05:46;;;;;;;35.58;19.30;;;;;;;9.20;36.13;100322.88;6214237;22;96591;-83
2022/03/03 13:08:24;;;;;;;26.67;15.13;;;;;;;9.40;35.69;100359.84;6207789;22;101000;-80
2022/03/03 13:10:52;;;;;;;28.17;15.30;;;;;;;9.30;36.05;100340.91;6239732;22;97920;-81
2022/03/03 13:13:18;;;;;;;27.92;15.18;;;;;;;9.36;35.59;100362.59;6181569;22;97172;-83
2022/03/03 13:15:43;;;;;;;21.92;13.93;;;;;;;9.29;36.02;100352.28;6187455;22;97476;-79
2022/03/03 13:18:13;;;;;;;25.35;15.65;;;;;;;9.28;36.22;100355.81;6188831;22;101303;-78
2022/03/03 13:20:54;;;;;;;23.52;15.77;;;;;;;9.20;36.33;100339.47;6188219;22;101184;-78
2022/03/03 13:23:20;;;;;;;24.73;16.05;;;;;;;9.03;36.25;100331.22;6213625;22;96985;-77
2022/03/03 13:25:46;;;;;;;26.63;16.73;;;;;;;8.98;36.55;100322.63;6238953;22;96872;-86
2022/03/03 13:28:26;;;;;;;25.77;17.05;;;;;;;9.11;36.38;100347.56;6213002;22;100328;-80
2022/03/03 13:30:52;;;;;;;27.75;18.00;;;;;;;9.03;36.96;100333.81;6215879;22;97384;-77
2022/03/03 13:33:17;;;;;;;27.30;17.40;;;;;;;8.98;37.12;100336.56;6242322;22;97234;-78
2022/03/03 13:35:43;;;;;;;25.23;15.73;;;;;;;9.03;37.37;100339.06;6216233;22;97090;-76
2022/03/03 13:38:09;;;;;;;24.48;16.17;;;;;;;9.05;37.27;100343.38;6214510;22;101239;-78
2022/03/03 13:40:37;;;;;;;27.45;16.92;;;;;;;8.99;37.80;100330.44;6190337;22;100682;-77
2022/03/03 13:43:03;;;;;;;29.13;18.58;;;;;;;8.99;37.33;100340.91;6215568;22;96958;-77
2022/03/03 13:45:36;;;;;;;30.17;17.90;;;;;;;8.97;37.35;100324.38;6188286;22;97465;-77
2022/03/03 13:48:01;;;;;;;28.23;16.20;;;;;;;9.02;37.60;100332.97;6240544;22;98158;-77
2022/03/03 13:50:28;;;;;;;31.73;15.32;;;;;;;8.79;37.55;100296.09;6214816;22;101435;-77
2022/03/03 13:52:53;;;;;;;24.50;15.40;;;;;;;9.05;37.52;100332.88;6217177;22;97025;-77
2022/03/03 13:55:20;;;;;;;26.13;16.63;;;;;;;9.03;37.67;100331.22;6215742;22;96837;-78
2022/03/03 13:57:55;;;;;;;25.17;17.13;;;;;;;8.98;37.85;100326.09;6241670;22;97283;-80
2022/03/03 14:00:33;;;;;;;25.73;17.67;;;;;;;8.78;37.59;100305.69;6189849;22;101048;-77
2022/03/03 14:03:04;;;;;;;33.95;20.70;;;;;;;8.84;37.99;100330.84;6216837;22;97143;-77
2022/03/03 14:05:45;;;;;;;29.10;19.55;;;;;;;8.75;38.04;100318.00;6216319;22;97309;-76
2022/03/03 14:08:29;;;;;;;31.05;19.10;;;;;;;8.78;38.07;100341.47;6215908;22;101126;-77
2022/03/03 14:11:24;;;;;;;28.30;18.67;;;;;;;8.74;38.52;100334.59;6191153;22;101265;-76
2022/03/03 14:13:54;;;;;;;26.90;18.65;;;;;;;8.73;38.70;100331.13;6216583;22;97065;-77
2022/03/03 14:16:22;;;;;;;31.05;18.60;;;;;;;8.64;38.82;100318.28;6216484;22;96925;-76
2022/03/03 14:18:49;;;;;;;31.38;17.70;;;;;;;8.68;38.49;100309.47;6234749;22;97473;-80
2022/03/03 14:21:15;;;;;;;25.27;17.38;;;;;;;8.82;38.70;100343.13;6212412;22;100925;-82
2022/03/03 14:23:41;;;;;;;31.08;18.67;;;;;;;8.81;39.27;100342.28;6213741;22;97115;-77
2022/03/03 14:26:10;;;;;;;28.60;17.83;;;;;;;8.80;39.20;100337.91;6213701;22;97003;-82
2022/03/03 14:28:35;;;;;;;32.80;18.98;;;;;;;8.79;39.05;100335.34;6213864;22;97795;-77
2022/03/03 14:31:01;;;;;;;36.15;18.17;;;;;;;8.72;39.25;100339.88;6213736;22;100715;-78
2022/03/03 14:33:27;;;;;;;28.95;17.80;;;;;;;8.72;39.43;100345.09;6212901;22;96925;-78
2022/03/03 14:35:56;;;;;;;28.42;17.67;;;;;;;8.67;39.38;100340.88;6186861;22;96964;-78
2022/03/03 14:38:22;;;;;;;31.15;18.83;;;;;;;8.53;39.79;100328.19;6213142;22;101528;-79
2022/03/03 14:40:48;;;;;;;27.38;17.30;;;;;;;8.53;40.19;100343.88;6188306;22;101476;-78
2022/03/03 14:43:15;;;;;;;31.23;17.73;;;;;;;8.29;39.82;100308.66;6214779;22;96947;-78
2022/03/03 14:45:41;;;;;;;26.50;16.83;;;;;;;8.37;40.46;100319.81;6215862;22;96914;-78
2022/03/03 14:48:06;;;;;;;33.38;18.33;;;;;;;8.50;40.18;100347.44;6241315;22;101440;-77
2022/03/03 14:50:35;;;;;;;25.55;16.13;;;;;;;8.50;40.23;100347.44;6214659;22;100546;-78
2022/03/03 14:53:05;;;;;;;29.35;17.92;;;;;;;8.49;40.42;100350.91;6215502;22;96695;-77
2022/03/03 14:55:32;;;;;;;28.55;17.23;;;;;;;8.50;40.89;100354.41;6241652;22;96895;-77
2022/03/03 14:57:59;;;;;;;27.67;16.52;;;;;;;8.48;40.53;100358.81;6214929;22;97631;-77
2022/03/03 15:00:24;;;;;;;22.85;15.27;;;;;;;8.45;40.41;100353.66;6214320;22;100805;-78
2022/03/03 15:02:50;;;;;;;23.30;13.85;;;;;;;8.25;40.57;100328.81;6241179;22;97047;-76
2022/03/03 15:05:19;;;;;;;24.45;13.52;;;;;;;8.39;40.28;100345.06;6240729;22;96950;-77
2022/03/03 15:07:45;;;;;;;25.15;14.10;;;;;;;8.43;40.58;100345.00;6189374;22;101198;-83
2022/03/03 15:10:13;;;;;;;31.08;19.00;;;;;;;8.41;41.16;100347.66;6187657;22;100638;-86
2022/03/03 15:12:39;;;;;;;36.05;21.48;;;;;;;8.35;42.66;100359.09;6188130;22;97229;-81
2022/03/03 15:15:05;;;;;;;32.80;21.77;;;;;;;8.20;43.24;100343.75;6212378;22;97049;-81
2022/03/03 15:17:32;;;;;;;36.17;23.35;;;;;;;8.21;44.18;100355.94;6207198;22;101543;-80
2022/03/03 15:19:57;;;;;;;38.75;23.83;;;;;;;8.11;44.34;100341.34;6212597;22;101203;-80
2022/03/03 15:22:23;;;;;;;35.40;24.23;;;;;;;8.08;45.15;100346.66;6213720;22;96828;-81
2022/03/03 15:24:49;;;;;;;41.45;25.00;;;;;;;8.07;44.80;100347.56;6211146;22;96895;-80
2022/03/03 15:27:15;;;;;;;36.88;24.77;;;;;;;8.02;44.77;100347.66;6212852;22;101733;-81
2022/03/03 15:29:41;;;;;;;43.88;26.70;;;;;;;8.00;44.83;100349.47;6184433;22;100634;-81
2022/03/03 15:32:08;;;;;;;54.38;33.33;;;;;;;8.01;45.67;100350.31;6188539;22;97246;-80
2022/03/03 15:37:21;;;;;;;63.22;39.63;;;;;;;7.99;46.53;100358.19;6215781;22;101261;-82
2022/03/03 15:39:48;;;;;;;65.32;39.92;;;;;;;7.80;47.50;100336.00;6240891;22;97452;-82
2022/03/03 15:42:15;;;;;;;65.05;39.83;;;;;;;7.81;47.95;100356.00;6214351;22;96602;-80
2022/03/03 15:44:41;;;;;;;63.50;39.17;;;;;;;7.77;48.31;100372.66;6215354;22;97037;-82
2022/03/03 15:47:07;;;;;;;66.60;39.80;;;;;;;7.66;48.51;100365.88;6213810;22;97360;-81
2022/03/03 15:49:32;;;;;;;59.47;36.20;;;;;;;7.48;48.81;100356.69;6214841;22;97736;-81
2022/03/03 15:51:58;;;;;;;59.55;37.13;;;;;;;7.44;48.99;100378.53;6210317;22;97181;-81
2022/03/03 15:54:24;;;;;;;57.10;36.00;;;;;;;7.44;49.27;100386.34;6211411;22;96832;-82
2022/03/03 15:56:51;;;;;;;64.53;36.27;;;;;;;7.30;49.22;100383.19;6239850;22;97554;-81
2022/03/03 15:59:17;;;;;;;61.25;35.50;;;;;;;7.27;49.41;100385.81;6185508;22;101516;-81
2022/03/03 16:01:43;;;;;;;58.45;34.47;;;;;;;7.21;49.44;100393.78;6213392;22;96778;-81
2022/03/03 16:04:11;;;;;;;54.10;34.55;;;;;;;7.16;49.36;100408.69;6187011;22;97222;-79
2022/03/03 16:06:38;;;;;;;60.13;33.13;;;;;;;7.03;49.20;100395.00;6212274;22;101756;-80
2022/03/03 16:09:06;;;;;;;53.33;31.60;;;;;;;6.96;49.36;100401.22;6187128;22;101073;-81
2022/03/03 16:11:32;;;;;;;56.95;32.40;;;;;;;6.85;49.61;100419.66;6212536;22;97128;-80
2022/03/03 16:13:57;;;;;;;59.87;33.03;;;;;;;6.71;49.50;100419.91;6212802;22;97245;-80
2022/03/03 16:16:24;;;;;;;54.10;30.47;;;;;;;6.57;49.47;100411.44;6209568;22;101466;-80
2022/03/03 16:18:49;;;;;;;55.80;29.47;;;;;;;6.60;49.37;100428.78;6186276;22;101197;-81
2022/03/03 16:21:15;;;;;;;56.57;31.87;;;;;;;6.56;49.54;100427.97;6186339;22;96705;-80
2022/03/03 16:23:41;;;;;;;53.33;31.03;;;;;;;6.52;49.33;100431.53;6187562;22;97437;-81
2022/03/03 16:26:07;;;;;;;54.97;31.03;;;;;;;6.44;49.61;100436.84;6186127;22;100297;-82
2022/03/03 16:28:33;;;;;;;53.50;31.13;;;;;;;6.33;49.22;100420.50;6210399;22;101583;-83
2022/03/03 16:30:59;;;;;;;56.93;30.87;;;;;;;6.45;49.24;100435.97;6212345;22;97236;-81
2022/03/03 16:33:25;;;;;;;52.90;29.53;;;;;;;6.36;49.60;100433.50;6212246;22;96769;-82
2022/03/03 16:35:51;;;;;;;53.83;30.90;;;;;;;6.14;49.53;100409.50;6211351;22;100867;-81
2022/03/03 16:38:17;;;;;;;51.87;29.53;;;;;;;6.22;49.71;100444.13;6237267;22;98851;-79
2022/03/03 16:40:42;;;;;;;58.03;31.77;;;;;;;6.13;49.69;100446.84;6209051;22;97402;-80
2022/03/03 16:43:08;;;;;;;57.60;31.40;;;;;;;6.12;49.42;100458.19;6212797;22;96979;-81
2022/03/03 16:45:34;;;;;;;53.97;32.20;;;;;;;6.06;49.30;100463.47;6210656;22;100926;-81
2022/03/03 16:48:00;;;;;;;57.10;33.23;;;;;;;5.99;49.40;100459.22;6237312;22;97969;-81
2022/03/03 16:50:27;;;;;;;59.23;34.13;;;;;;;5.90;49.64;100467.97;6210317;22;96983;-78
2022/03/03 16:52:53;;;;;;;63.13;35.47;;;;;;;5.87;48.84;100479.28;6213890;22;97129;-77
2022/03/03 16:55:20;;;;;;;63.47;37.57;;;;;;;5.81;49.05;100470.69;6215727;22;98320;-77
2022/03/03 16:57:46;;;;;;;61.80;37.13;;;;;;;5.70;49.18;100482.97;6215778;22;100665;-77
2022/03/03 17:00:12;;;;;;;71.97;41.03;;;;;;;5.65;49.18;100475.25;6240073;22;97328;-79
2022/03/03 17:02:39;;;;;;;70.33;41.00;;;;;;;5.53;49.44;100481.44;6237671;22;97206;-78
2022/03/03 17:05:06;;;;;;;64.87;39.43;;;;;;;5.47;49.46;100489.31;6214380;22;101908;-78
2022/03/03 17:07:35;;;;;;;71.07;39.97;;;;;;;5.29;49.31;100455.66;6240471;22;97920;-78
2022/03/03 17:10:01;;;;;;;67.20;39.07;;;;;;;5.36;49.53;100492.03;6241113;22;96743;-78
2022/03/03 17:12:27;;;;;;;72.17;40.80;;;;;;;5.39;49.60;100493.75;6241335;22;96785;-78
2022/03/03 17:14:53;;;;;;;63.77;37.77;;;;;;;5.30;49.60;100493.84;6214905;22;101432;-78
2022/03/03 17:17:18;;;;;;;70.67;38.00;;;;;;;5.25;49.66;100506.03;6214336;22;97786;-78
2022/03/03 17:19:44;;;;;;;64.17;37.07;;;;;;;5.12;50.03;100497.44;6189729;22;97205;-78
2022/03/03 17:22:10;;;;;;;55.37;34.30;;;;;;;5.16;49.65;100493.97;6215616;22;96919;-78
2022/03/03 17:24:36;;;;;;;58.57;33.57;;;;;;;4.93;49.72;100462.94;6187800;22;100892;-84
2022/03/03 17:27:04;;;;;;;57.93;33.37;;;;;;;5.06;49.75;100497.50;6210352;22;101245;-80
2022/03/03 17:29:31;;;;;;;62.90;34.77;;;;;;;5.05;49.67;100506.19;6239383;22;96936;-78
2022/03/03 17:31:56;;;;;;;61.23;34.13;;;;;;;5.04;50.08;100494.94;6240284;22;97058;-77
2022/03/03 17:34:22;;;;;;;58.20;33.03;;;;;;;4.92;50.41;100487.25;6211263;22;97787;-77
2022/03/03 17:36:57;;;;;;;57.80;32.07;;;;;;;5.01;49.87;100499.31;6210965;22;101398;-77
2022/03/03 17:39:22;;;;;;;60.07;32.53;;;;;;;5.02;50.29;100512.28;6236396;22;96715;-80
2022/03/03 17:41:48;;;;;;;57.83;32.13;;;;;;;4.95;50.13;100500.22;6211558;22;97150;-78
2022/03/03 17:44:14;;;;;;;58.43;33.83;;;;;;;4.98;50.00;100508.00;6236824;22;97499;-79
2022/03/03 17:46:40;;;;;;;52.83;31.77;;;;;;;4.98;49.86;100495.84;6208343;22;102433;-78
2022/03/03 17:49:08;;;;;;;60.10;33.47;;;;;;;4.97;50.16;100506.25;6210542;22;97161;-78
2022/03/03 17:51:34;;;;;;;54.00;30.70;;;;;;;4.81;50.24;100494.25;6234864;22;96777;-79
2022/03/03 17:54:00;;;;;;;52.17;28.70;;;;;;;4.81;50.23;100510.72;6184603;22;101231;-77
2022/03/03 17:56:26;;;;;;;53.43;28.57;;;;;;;4.79;50.56;100527.22;6238346;22;97887;-77
2022/03/03 17:58:51;;;;;;;48.00;27.50;;;;;;;4.81;50.32;100541.09;6212277;22;97040;-79
2022/03/03 18:01:17;;;;;;;48.60;29.97;;;;;;;4.70;50.88;100533.34;6214172;22;97040;-82
2022/03/03 18:03:43;;;;;;;53.57;30.20;;;;;;;4.50;50.68;100512.66;6239514;22;97644;-77
2022/03/03 18:06:09;;;;;;;48.93;27.80;;;;;;;4.76;50.83;100549.75;6214934;22;101148;-80
2022/03/03 18:08:35;;;;;;;49.03;28.63;;;;;;;4.80;50.76;100555.81;6215128;22;96667;-79
2022/03/03 18:11:01;;;;;;;46.23;26.63;;;;;;;4.65;50.70;100537.69;6180428;22;96866;-81
2022/03/03 18:13:28;;;;;;;48.83;27.93;;;;;;;4.76;50.88;100567.09;6187605;22;101298;-80
2022/03/03 18:15:54;;;;;;;50.10;27.90;;;;;;;4.74;50.65;100558.44;6215691;22;97933;-78
2022/03/03 18:18:20;;;;;;;47.97;28.47;;;;;;;4.58;50.91;100539.47;6241230;22;97012;-76
2022/03/03 18:20:47;;;;;;;50.80;28.33;;;;;;;4.74;50.99;100550.63;6215428;22;97274;-76
2022/03/03 18:23:13;;;;;;;51.27;28.03;;;;;;;4.72;50.77;100557.59;6214214;22;102036;-82
2022/03/03 18:25:38;;;;;;;49.80;27.87;;;;;;;4.70;51.00;100556.75;6213950;22;100450;-85
2022/03/03 18:28:04;;;;;;;48.97;28.53;;;;;;;4.60;51.07;100540.34;6214827;22;97113;-81
2022/03/03 18:30:43;;;;;;;52.43;30.33;;;;;;;4.73;50.81;100573.19;6214420;22;96952;-82
2022/03/03 18:33:16;;;;;;;55.43;31.30;;;;;;;4.74;51.01;100564.53;6193531;22;101286;-78
2022/03/03 18:35:44;;;;;;;50.33;28.37;;;;;;;4.48;51.14;100541.28;6212960;22;98380;-78
2022/03/03 18:38:11;;;;;;;55.13;30.60;;;;;;;4.73;51.39;100572.31;6212636;22;97154;-78
2022/03/03 18:40:37;;;;;;;57.30;31.23;;;;;;;4.71;50.99;100568.88;6206987;22;97215;-76
2022/03/03 18:43:03;;;;;;;55.13;31.77;;;;;;;4.58;51.01;100572.44;6204573;22;97340;-74
2022/03/03 18:45:29;;;;;;;51.40;28.57;;;;;;;4.19;51.70;100524.94;6204697;22;101687;-75
2022/03/03 18:47:55;;;;;;;45.57;26.77;;;;;;;4.51;51.99;100582.88;6234102;22;97190;-74
2022/03/03 18:50:22;;;;;;;49.73;28.57;;;;;;;4.42;51.69;100579.41;6179944;22;97209;-78
2022/03/03 18:52:48;;;;;;;49.27;29.63;;;;;;;4.35;52.07;100594.19;6233764;22;98094;-74
2022/03/03 18:55:13;;;;;;;51.80;29.70;;;;;;;4.46;51.91;100589.81;6208150;22;101126;-75
2022/03/03 18:57:39;;;;;;;47.13;27.57;;;;;;;4.40;51.90;100579.44;6204744;22;97187;-75
2022/03/03 19:00:06;;;;;;;47.97;26.23;;;;;;;4.53;51.73;100601.91;6208801;22;97233;-77
2022/03/03 19:02:34;;;;;;;47.40;26.03;;;;;;;4.47;51.87;100586.34;6208482;22;101819;-77
2022/03/03 19:04:59;;;;;;;45.70;25.57;;;;;;;4.24;51.84;100562.19;6212926;22;100741;-75
2022/03/03 19:07:25;;;;;;;41.23;24.87;;;;;;;4.42;51.94;100608.00;6211638;22;96938;-74
2022/03/03 19:09:51;;;;;;;42.57;24.97;;;;;;;4.41;52.18;100603.69;6187608;22;96768;-75
2022/03/03 19:12:17;;;;;;;47.87;25.83;;;;;;;4.32;51.89;100602.00;6209024;22;97914;-77